Time;durP1;ratioP1;P1;durP2;ratioP2;P2;SDS_P1;SDS_P2;PMS_P1;PMS_P2;Temp;Humidity;BMP_temperature;BMP_pressure;BME280_temperature;BME280_humidity;BME280_pressure;Samples;Min_cycle;Max_cycle;Signal;HPM_P1;HPM_P2
2022/06/22 00:01:03;;;;;;;8.75;7.05;;;;;;;21.20;60.42;94467.78;5052031;28;20044;-72
2022/06/22 00:03:29;;;;;;;9.18;7.35;;;;;;;21.18;61.01;94480.41;5061997;28;20490;-72
2022/06/22 00:05:54;;;;;;;9.88;7.07;;;;;;;21.13;61.10;94480.97;5061373;28;20127;-72
2022/06/22 00:08:22;;;;;;;12.40;7.38;;;;;;;21.07;60.74;94480.97;5091826;28;20028;-73
2022/06/22 00:10:53;;;;;;;8.07;6.95;;;;;;;21.09;60.90;94479.78;5075045;28;20032;-72
2022/06/22 00:13:24;;;;;;;10.80;7.70;;;;;;;21.08;60.37;94475.47;5073762;28;20655;-73
2022/06/22 00:15:56;;;;;;;;;;;;;;;21.03;60.42;94477.91;5076039;28;20047;-72
2022/06/22 00:18:29;;;;;;;9.95;7.20;;;;;;;20.94;60.56;94472.00;5092506;28;20019;-72
2022/06/22 00:20:57;;;;;;;7.90;7.10;;;;;;;20.88;61.16;94483.34;5070491;28;20095;-72
2022/06/22 00:23:29;;;;;;;9.90;7.20;;;;;;;20.82;61.54;94484.16;5071843;28;20033;-72
2022/06/22 00:26:24;;;;;;;11.77;7.50;;;;;;;20.83;61.20;94491.06;5060470;28;20107;-72
2022/06/22 00:29:02;;;;;;;10.05;7.03;;;;;;;20.81;61.69;94497.53;5080126;28;20066;-72
2022/06/22 00:31:50;;;;;;;8.75;7.63;;;;;;;20.71;61.87;94488.16;5093374;28;20405;-72
2022/06/22 00:34:19;;;;;;;8.25;7.45;;;;;;;20.66;62.30;94487.13;5059437;28;20020;-72
2022/06/22 00:36:55;;;;;;;10.27;7.60;;;;;;;20.56;62.40;94458.50;5090028;28;20040;-72
2022/06/22 00:39:20;;;;;;;11.35;8.10;;;;;;;20.61;62.29;94477.16;5091794;28;20020;-72
2022/06/22 00:42:18;;;;;;;11.57;8.25;;;;;;;20.60;62.22;94483.47;5093221;28;20042;-72
2022/06/22 00:44:51;;;;;;;10.50;7.88;;;;;;;20.53;62.57;94486.09;5089203;28;20408;-72
2022/06/22 00:47:25;;;;;;;10.65;7.72;;;;;;;20.53;62.20;94491.34;5055156;28;20391;-72
2022/06/22 00:49:52;;;;;;;11.95;8.75;;;;;;;20.47;62.22;94473.63;5055208;28;20081;-72
2022/06/22 00:52:24;;;;;;;10.20;8.73;;;;;;;20.49;62.75;94478.72;5066677;28;20501;-72
2022/06/22 00:54:50;;;;;;;12.88;8.60;;;;;;;20.48;62.78;94483.19;5075115;28;20111;-72
2022/06/22 00:57:22;;;;;;;14.07;8.60;;;;;;;20.45;62.93;94483.56;5074475;28;20029;-72
2022/06/22 01:00:19;;;;;;;10.25;9.00;;;;;;;20.45;62.80;94488.84;5072720;28;20412;-72
2022/06/22 01:02:56;;;;;;;10.90;8.18;;;;;;;20.41;63.28;94487.59;5070683;28;20035;-72
2022/06/22 01:05:27;;;;;;;11.27;8.80;;;;;;;20.37;63.59;94482.94;5053512;28;20052;-72
2022/06/22 01:08:00;;;;;;;9.18;8.02;;;;;;;20.29;64.39;94473.34;5061175;28;20028;-72
2022/06/22 01:10:45;;;;;;;10.60;8.55;;;;;;;20.31;63.39;94479.25;5091097;28;20435;-72
2022/06/22 01:13:16;;;;;;;10.68;8.77;;;;;;;20.33;64.05;94482.47;5091287;28;20398;-72
2022/06/22 01:15:55;;;;;;;10.23;9.18;;;;;;;20.30;64.81;94485.50;5084568;28;20037;-72
2022/06/22 01:18:27;;;;;;;12.40;9.18;;;;;;;20.32;64.22;94470.31;5059765;28;20572;-72
2022/06/22 01:21:17;;;;;;;11.73;9.13;;;;;;;20.34;63.97;94468.31;5092244;28;20120;-72
2022/06/22 01:23:46;;;;;;;;;;;;;;;20.33;64.14;94464.03;5091080;28;20036;-72
2022/06/22 01:26:35;;;;;;;11.95;9.00;;;;;;;20.31;64.54;94469.50;5090853;28;19928;-72
2022/06/22 01:29:24;;;;;;;11.65;9.18;;;;;;;20.30;64.79;94470.50;5081019;28;20044;-72
2022/06/22 01:32:12;;;;;;;10.40;9.18;;;;;;;20.29;64.87;94463.59;5070334;28;20399;-72
2022/06/22 01:34:43;;;;;;;14.27;9.60;;;;;;;20.25;64.92;94466.81;5070495;28;20105;-72
2022/06/22 01:37:14;;;;;;;13.15;9.82;;;;;;;20.21;64.48;94470.88;5075571;28;20036;-72
2022/06/22 01:39:39;;;;;;;11.45;9.90;;;;;;;20.20;64.75;94463.97;5055983;28;20034;-72
2022/06/22 01:42:09;;;;;;;10.57;9.50;;;;;;;20.21;65.50;94461.13;5089166;28;20040;-71
2022/06/22 01:44:34;;;;;;;10.82;9.73;;;;;;;20.19;65.46;94470.25;5057673;28;20402;-72
2022/06/22 01:47:41;;;;;;;14.35;9.88;;;;;;;20.15;66.06;94461.09;5071811;28;20037;-72
2022/06/22 01:50:26;;;;;;;10.63;9.52;;;;;;;20.17;65.52;94456.41;5069823;28;20041;-72
2022/06/22 01:52:58;;;;;;;10.65;9.65;;;;;;;20.13;65.47;94460.47;5072393;28;20089;-72
2022/06/22 01:55:54;;;;;;;11.60;10.07;;;;;;;20.15;64.68;94458.47;5069868;28;20454;-72
2022/06/22 01:58:19;;;;;;;11.70;10.60;;;;;;;20.22;65.13;94456.66;5069974;28;20128;-72
2022/06/22 02:00:59;;;;;;;13.43;9.65;;;;;;;20.24;65.68;94454.66;5069835;28;20545;-72
2022/06/22 02:03:29;;;;;;;11.93;9.55;;;;;;;20.27;65.26;94449.78;5034288;28;20564;-72
2022/06/22 02:09:14;;;;;;;11.20;9.52;;;;;;;20.29;65.27;94447.78;5055981;28;20052;-73
2022/06/22 02:11:44;;;;;;;11.10;9.35;;;;;;;20.31;64.84;94443.13;5033426;28;20067;-72
2022/06/22 02:14:21;;;;;;;12.35;9.80;;;;;;;20.35;63.97;94455.94;5032595;28;20551;-72
2022/06/22 02:16:59;;;;;;;12.70;9.73;;;;;;;20.30;64.60;94459.13;5062013;28;20044;-72
2022/06/22 02:19:27;;;;;;;14.32;9.85;;;;;;;20.27;64.56;94447.16;5052227;28;20567;-72
2022/06/22 02:21:54;;;;;;;12.40;9.70;;;;;;;20.34;64.16;94451.63;5052583;28;20036;-72
2022/06/22 02:24:31;;;;;;;12.30;9.73;;;;;;;20.25;64.33;94445.72;5089586;28;20036;-72
2022/06/22 02:27:05;;;;;;;14.95;11.10;;;;;;;20.23;64.65;94447.75;5073555;28;20028;-72
2022/06/22 02:29:31;;;;;;;12.30;10.20;;;;;;;20.24;64.37;94444.09;5089736;28;20046;-72
2022/06/22 02:31:58;;;;;;;13.38;10.57;;;;;;;20.25;64.67;94445.72;5079054;28;20039;-72
2022/06/22 02:34:23;;;;;;;11.38;9.82;;;;;;;20.21;65.15;94439.22;5069586;28;20024;-72
2022/06/22 02:36:49;;;;;;;13.80;10.60;;;;;;;20.16;65.23;94441.63;5069508;28;20111;-72
2022/06/22 02:39:14;;;;;;;10.75;9.68;;;;;;;20.11;65.29;94446.66;5053739;28;20036;-72
2022/06/22 02:44:29;;;;;;;13.32;9.95;;;;;;;20.05;65.61;94437.72;5069680;28;20540;-72
2022/06/22 02:46:54;;;;;;;;;;;;;;;20.03;65.51;94437.91;5050115;28;20036;-72
2022/06/22 02:49:25;;;;;;;10.93;9.60;;;;;;;19.99;65.14;94439.28;5062914;28;19916;-72
2022/06/22 02:51:50;;;;;;;12.73;9.98;;;;;;;19.98;64.69;94440.31;5052884;28;20294;-72
2022/06/22 02:54:38;;;;;;;11.45;10.15;;;;;;;19.90;65.21;94437.84;5049279;28;20414;-72
2022/06/22 02:57:13;;;;;;;11.40;10.13;;;;;;;19.90;65.55;94435.19;5049334;28;20111;-72
2022/06/22 02:59:38;;;;;;;13.10;10.15;;;;;;;19.94;65.42;94451.44;5050577;28;20029;-72
2022/06/22 03:02:04;;;;;;;13.50;10.35;;;;;;;19.91;65.83;94452.63;5032810;28;20033;-72
2022/06/22 03:04:30;;;;;;;11.52;10.35;;;;;;;19.91;65.70;94442.09;5048298;28;20032;-72
2022/06/22 03:06:55;;;;;;;11.55;10.38;;;;;;;19.92;65.88;94441.09;5052763;28;20401;-72
2022/06/22 03:09:21;;;;;;;11.80;10.27;;;;;;;19.94;65.70;94446.97;5083154;28;20055;-72
2022/06/22 03:11:48;;;;;;;11.80;10.55;;;;;;;19.94;65.86;94451.44;5072552;28;20548;-72
2022/06/22 03:14:32;;;;;;;11.82;10.60;;;;;;;19.95;65.94;94468.91;5087424;28;20032;-72
2022/06/22 03:17:14;;;;;;;12.80;10.45;;;;;;;19.91;66.39;94454.44;5056245;28;20092;-72
2022/06/22 03:19:49;;;;;;;12.10;10.25;;;;;;;19.88;67.02;94455.66;5057465;28;20417;-72
2022/06/22 03:22:21;;;;;;;12.85;10.88;;;;;;;19.88;66.65;94457.47;5083097;28;20527;-72
2022/06/22 03:24:54;;;;;;;13.32;10.30;;;;;;;19.91;67.42;94455.25;5068971;28;20031;-72
2022/06/22 03:27:23;;;;;;;13.23;10.75;;;;;;;19.93;67.01;94447.97;5052785;28;20039;-72
2022/06/22 03:29:56;;;;;;;14.38;11.07;;;;;;;19.97;67.54;94458.94;5074375;28;20042;-72
2022/06/22 03:32:27;;;;;;;12.38;11.10;;;;;;;19.95;67.70;94453.88;5039602;28;20044;-72
2022/06/22 03:35:12;;;;;;;16.45;11.00;;;;;;;19.97;66.42;94453.69;5072161;28;20494;-72
2022/06/22 03:37:41;;;;;;;14.20;10.82;;;;;;;20.08;67.34;94450.50;5055138;28;20457;-72
2022/06/22 03:40:34;;;;;;;13.02;10.57;;;;;;;20.21;67.01;94450.56;5055398;28;20037;-74
2022/06/22 03:43:30;;;;;;;11.45;10.27;;;;;;;20.28;66.82;94446.16;5072696;28;20108;-72
2022/06/22 03:46:02;;;;;;;14.27;12.40;;;;;;;20.36;66.53;94447.81;5043206;28;20048;-72
2022/06/22 03:48:36;;;;;;;12.50;11.15;;;;;;;20.49;66.22;94454.97;5071983;28;20035;-72
2022/06/22 03:51:10;;;;;;;12.65;11.35;;;;;;;20.55;66.51;94453.41;5069459;28;20059;-72
2022/06/22 03:53:42;;;;;;;14.85;10.98;;;;;;;20.62;65.82;94462.97;5071892;28;20017;-72
2022/06/22 03:56:10;;;;;;;11.93;10.50;;;;;;;20.61;66.72;94455.25;5071927;28;20036;-73
2022/06/22 03:58:35;;;;;;;13.38;10.68;;;;;;;20.56;67.38;94463.78;5071717;28;20029;-72
2022/06/22 04:01:02;;;;;;;13.60;11.13;;;;;;;20.53;66.81;94456.22;5054449;28;20102;-72
2022/06/22 04:03:28;;;;;;;12.18;10.25;;;;;;;20.52;67.42;94463.28;5083037;28;20028;-72
2022/06/22 04:05:55;;;;;;;12.02;10.35;;;;;;;20.44;67.16;94463.47;5064152;28;20056;-72
2022/06/22 04:08:32;;;;;;;12.13;10.95;;;;;;;20.47;67.68;94472.81;5057845;28;20121;-72
2022/06/22 04:11:09;;;;;;;12.43;11.23;;;;;;;20.48;67.31;94479.72;5061866;28;20039;-73
2022/06/22 04:13:42;;;;;;;12.30;11.00;;;;;;;20.56;66.91;94486.69;5066101;28;20036;-72
2022/06/22 04:16:18;;;;;;;12.60;11.15;;;;;;;21.18;65.38;94483.03;5073464;28;20111;-72
2022/06/22 04:19:00;;;;;;;12.02;10.73;;;;;;;21.73;63.90;94485.53;5065983;28;20421;-72
2022/06/22 04:21:30;;;;;;;13.77;10.13;;;;;;;22.20;63.00;94473.13;5089083;28;20033;-72
2022/06/22 04:23:57;;;;;;;14.27;10.73;;;;;;;22.70;61.41;94471.53;5086643;28;20036;-73
2022/06/22 04:26:34;;;;;;;12.38;10.57;;;;;;;23.34;58.91;94467.13;5064049;28;20036;-72
2022/06/22 04:29:10;;;;;;;12.82;10.05;;;;;;;23.82;56.71;94436.63;5056647;28;20055;-76
2022/06/22 04:31:37;;;;;;;12.52;10.00;;;;;;;24.51;55.53;94458.59;5055206;28;20036;-76
2022/06/22 04:34:10;;;;;;;11.63;9.75;;;;;;;24.94;53.90;94455.03;5071358;28;20033;-76
2022/06/22 04:36:50;;;;;;;11.85;9.23;;;;;;;25.47;52.09;94458.81;5039385;28;20029;-76
2022/06/22 04:39:31;;;;;;;11.63;8.77;;;;;;;25.96;51.27;94464.78;5055037;28;20029;-76
2022/06/22 04:41:56;;;;;;;9.55;8.32;;;;;;;26.34;50.57;94458.19;5072712;28;20037;-77
2022/06/22 04:44:33;;;;;;;11.45;9.15;;;;;;;26.58;48.56;94467.81;5073172;28;20131;-76
2022/06/22 04:47:07;;;;;;;12.20;9.13;;;;;;;26.26;50.22;94462.81;5053410;28;20025;-75
2022/06/22 04:49:39;;;;;;;9.95;9.00;;;;;;;25.72;52.35;94475.41;5054308;28;20032;-75
2022/06/22 04:52:26;;;;;;;11.48;9.10;;;;;;;25.68;52.16;94476.88;5089845;28;20120;-75
2022/06/22 04:54:55;;;;;;;10.20;8.95;;;;;;;25.63;52.34;94480.25;5073551;28;20566;-77
2022/06/22 04:57:22;;;;;;;11.60;9.70;;;;;;;25.79;52.69;94494.69;5071972;28;20489;-76
2022/06/22 04:59:47;;;;;;;12.90;10.20;;;;;;;25.78;50.93;94486.97;5062333;28;20043;-76
2022/06/22 05:02:13;;;;;;;10.57;9.55;;;;;;;25.76;51.82;94478.41;5051489;28;20482;-76
2022/06/22 05:04:42;;;;;;;11.43;9.38;;;;;;;25.82;51.64;94488.13;5053286;28;20421;-77
2022/06/22 05:07:17;;;;;;;11.30;9.37;;;;;;;25.88;51.40;94487.22;5067058;28;20028;-76
2022/06/22 05:09:51;;;;;;;12.10;9.48;;;;;;;26.02;51.03;94490.47;5070278;28;20032;-76
2022/06/22 05:12:18;;;;;;;12.02;9.45;;;;;;;25.99;51.57;94497.09;5053948;28;20040;-76
2022/06/22 05:14:44;;;;;;;11.45;9.38;;;;;;;26.11;51.78;94498.94;5055587;28;20042;-77
2022/06/22 05:17:19;;;;;;;12.32;9.05;;;;;;;26.11;49.78;94497.09;5052719;28;20036;-76
2022/06/22 05:19:52;;;;;;;11.90;10.00;;;;;;;26.13;50.09;94500.31;5037362;28;20020;-76
2022/06/22 05:22:18;;;;;;;10.27;9.18;;;;;;;26.27;49.55;94496.41;5070901;28;20028;-76
2022/06/22 05:24:46;;;;;;;13.45;9.60;;;;;;;26.36;48.36;94488.06;5070161;28;20508;-76
2022/06/22 05:27:13;;;;;;;10.77;9.38;;;;;;;26.35;49.35;94494.41;5030967;28;20044;-76
2022/06/22 05:30:01;;;;;;;10.57;9.55;;;;;;;26.35;49.57;94492.56;5077334;28;20526;-76
2022/06/22 05:32:39;;;;;;;14.98;10.40;;;;;;;26.38;48.07;94493.94;5052918;28;20059;-76
2022/06/22 05:35:11;;;;;;;36.80;10.77;;;;;;;26.36;50.05;94488.06;5054224;28;20516;-76
2022/06/22 05:37:38;;;;;;;13.10;9.82;;;;;;;26.39;49.42;94485.75;5068540;28;20129;-75
2022/06/22 05:40:05;;;;;;;10.23;9.23;;;;;;;26.45;48.91;94484.00;5051039;28;20028;-76
2022/06/22 05:42:31;;;;;;;11.57;9.13;;;;;;;26.53;48.14;94486.34;5053294;28;20028;-76
2022/06/22 05:44:56;;;;;;;11.40;9.75;;;;;;;26.53;48.67;94473.03;5053726;28;20321;-76
2022/06/22 05:47:29;;;;;;;11.88;9.50;;;;;;;26.58;49.61;94467.81;5068890;28;20032;-76
2022/06/22 05:50:15;;;;;;;13.57;9.20;;;;;;;26.62;50.29;94476.94;5051513;28;20027;-77
2022/06/22 05:52:46;;;;;;;12.52;9.07;;;;;;;26.67;50.12;94482.38;5068343;28;20458;-80
2022/06/22 05:55:32;;;;;;;12.07;8.50;;;;;;;26.74;48.09;94496.38;5058146;28;20492;-79
2022/06/22 05:58:29;;;;;;;12.05;9.02;;;;;;;26.51;48.22;94499.06;5068089;28;20024;-78
2022/06/22 06:00:54;;;;;;;13.00;9.65;;;;;;;26.28;48.93;94495.34;5044735;28;20530;-79
2022/06/22 06:03:20;;;;;;;9.90;8.90;;;;;;;26.05;50.39;94500.69;5035714;28;20029;-80
2022/06/22 06:05:50;;;;;;;12.23;9.18;;;;;;;26.03;51.95;94492.91;5060506;28;20039;-79
2022/06/22 06:08:25;;;;;;;12.20;9.35;;;;;;;26.01;50.63;94491.53;5028793;28;20025;-78
2022/06/22 06:10:50;;;;;;;14.02;10.18;;;;;;;26.11;50.32;94491.78;5065163;28;20032;-78
2022/06/22 06:13:15;;;;;;;14.65;9.60;;;;;;;26.17;50.72;94490.84;5067100;28;20020;-78
2022/06/22 06:15:41;;;;;;;12.23;9.70;;;;;;;26.27;50.16;94475.09;5064911;28;20039;-78
2022/06/22 06:18:07;;;;;;;11.18;9.20;;;;;;;26.36;49.93;94486.22;5024027;28;20064;-79
2022/06/22 06:20:34;;;;;;;13.10;9.52;;;;;;;26.45;49.00;94492.00;5066663;28;20036;-78
2022/06/22 06:23:03;;;;;;;14.32;9.52;;;;;;;26.27;49.97;94479.59;5082837;28;20036;-79
2022/06/22 06:28:27;;;;;;;12.38;9.75;;;;;;;25.99;50.00;94483.78;5052353;28;20032;-80
2022/06/22 06:30:54;;;;;;;11.63;9.38;;;;;;;25.91;50.37;94488.63;5037306;28;20626;-82
2022/06/22 06:33:34;;;;;;;15.15;9.73;;;;;;;25.87;51.45;94490.13;5050633;28;20044;-74
2022/06/22 06:36:05;;;;;;;14.10;9.73;;;;;;;25.94;53.04;94490.84;5068070;28;20041;-75
2022/06/22 06:38:34;;;;;;;10.85;9.48;;;;;;;25.87;52.37;94485.63;5049116;28;20036;-74
2022/06/22 06:41:15;;;;;;;10.95;9.57;;;;;;;25.78;56.78;94487.78;5064230;28;20055;-74
2022/06/22 06:44:11;;;;;;;12.20;9.20;;;;;;;25.81;55.28;94487.31;5051236;28;20032;-74
2022/06/22 06:46:41;;;;;;;10.85;9.70;;;;;;;25.96;54.03;94483.41;5064414;28;20045;-74
2022/06/22 06:49:09;;;;;;;10.95;9.38;;;;;;;26.10;52.55;94484.81;5046031;28;20032;-74
2022/06/22 06:51:35;;;;;;;12.32;10.02;;;;;;;26.25;51.00;94477.19;5068510;28;20060;-74
2022/06/22 06:54:06;;;;;;;11.82;10.57;;;;;;;26.43;50.39;94481.56;5050600;28;20025;-75
2022/06/22 06:56:38;;;;;;;11.82;9.98;;;;;;;26.62;49.73;94471.59;5067656;28;20072;-74
2022/06/22 06:59:05;;;;;;;13.38;10.82;;;;;;;26.70;48.97;94471.25;5050918;28;20032;-74
2022/06/22 07:01:33;;;;;;;12.88;10.27;;;;;;;26.86;49.19;94463.56;5050751;28;20086;-75
2022/06/22 07:04:02;;;;;;;12.52;10.23;;;;;;;27.04;48.48;94468.72;5071079;28;20025;-74
2022/06/22 07:06:28;;;;;;;15.13;10.53;;;;;;;27.20;47.75;94466.38;5072023;28;20505;-75
2022/06/22 07:09:10;;;;;;;12.88;10.10;;;;;;;27.21;48.29;94462.66;5071410;28;20286;-75
2022/06/22 07:11:40;;;;;;;11.52;10.40;;;;;;;27.24;47.99;94459.50;5071329;28;20113;-74
2022/06/22 07:14:10;;;;;;;13.27;11.05;;;;;;;27.38;48.15;94455.47;5054836;28;20041;-75
2022/06/22 07:16:35;;;;;;;11.52;10.35;;;;;;;27.55;48.60;94458.16;5071285;28;20044;-74
2022/06/22 07:19:26;;;;;;;16.13;11.32;;;;;;;27.64;48.67;94448.75;5037660;28;20024;-74
2022/06/22 07:22:25;;;;;;;14.07;11.43;;;;;;;27.88;46.62;94462.75;5071228;28;20471;-75
2022/06/22 07:24:54;;;;;;;14.70;11.43;;;;;;;28.01;46.09;94456.28;5069178;28;20124;-75
2022/06/22 07:27:34;;;;;;;14.95;11.30;;;;;;;28.17;45.52;94454.66;5071995;28;20033;-74
2022/06/22 07:30:15;;;;;;;13.52;11.02;;;;;;;28.31;45.39;94460.47;5072914;28;20502;-75
2022/06/22 07:32:49;;;;;;;14.98;11.20;;;;;;;28.33;44.25;94463.66;5057869;28;20127;-75
2022/06/22 07:35:21;;;;;;;12.57;11.27;;;;;;;28.42;44.63;94460.38;5072938;28;20559;-74
2022/06/22 07:37:52;;;;;;;14.20;12.05;;;;;;;28.43;44.38;94453.16;5073959;28;20032;-75
2022/06/22 07:40:21;;;;;;;12.60;10.95;;;;;;;28.60;43.84;94458.47;5072461;28;20036;-75
2022/06/22 07:42:49;;;;;;;15.55;11.88;;;;;;;28.65;43.71;94455.84;5072660;28;20029;-74
2022/06/22 07:45:16;;;;;;;11.93;10.82;;;;;;;28.77;44.36;94455.72;5056042;28;20040;-75
2022/06/22 07:47:47;;;;;;;15.52;11.32;;;;;;;28.90;44.36;94450.00;5055918;28;20040;-75
2022/06/22 07:50:18;;;;;;;14.25;12.75;;;;;;;29.01;43.56;94454.41;5056098;28;20039;-75
2022/06/22 07:52:51;;;;;;;19.27;12.93;;;;;;;29.05;43.28;94465.44;5072747;28;20024;-75
2022/06/22 07:55:28;;;;;;;16.58;12.93;;;;;;;29.01;44.06;94464.31;5039393;28;20028;-75
2022/06/22 07:58:22;;;;;;;15.25;13.65;;;;;;;28.94;44.33;94465.28;5057008;28;20478;-75
2022/06/22 08:00:49;;;;;;;15.88;14.23;;;;;;;29.00;44.26;94486.72;5068224;28;20048;-75
2022/06/22 08:03:27;;;;;;;17.67;14.82;;;;;;;28.98;44.08;94475.50;5055773;28;20073;-74
2022/06/22 08:05:55;;;;;;;19.98;16.60;;;;;;;28.99;43.52;94479.78;5055794;28;20048;-75
2022/06/22 08:08:26;;;;;;;17.30;15.48;;;;;;;28.94;43.00;94465.28;5073375;28;20524;-75
2022/06/22 08:11:17;;;;;;;18.52;15.85;;;;;;;28.95;43.48;94484.81;5055752;28;20083;-74
2022/06/22 08:13:47;;;;;;;18.30;15.57;;;;;;;28.84;44.30;94480.41;5065874;28;20125;-74
2022/06/22 08:16:17;;;;;;;17.52;15.73;;;;;;;28.80;44.38;94473.94;5055874;28;20047;-74
2022/06/22 08:18:43;;;;;;;20.70;15.73;;;;;;;28.74;44.92;94465.84;5072064;28;20032;-74
2022/06/22 08:21:10;;;;;;;15.68;13.90;;;;;;;28.83;43.67;94474.22;5072955;28;20059;-74
2022/06/22 08:23:36;;;;;;;20.58;15.57;;;;;;;28.83;44.26;94479.59;5055332;28;20481;-74
2022/06/22 08:26:06;;;;;;;20.88;15.73;;;;;;;28.66;44.16;94457.47;5071726;28;20040;-72
2022/06/22 08:28:34;;;;;;;;;;;;;;;28.81;43.55;94465.69;5055570;28;20391;-72
2022/06/22 08:31:00;;;;;;;17.58;15.50;;;;;;;28.88;44.25;94463.63;5071905;28;19992;-72
2022/06/22 08:33:39;;;;;;;19.35;14.27;;;;;;;28.99;43.19;94471.75;5071754;28;20474;-73
2022/06/22 08:36:14;;;;;;;13.70;11.80;;;;;;;29.00;42.00;94462.66;5071726;28;20044;-73
2022/06/22 08:38:47;;;;;;;12.82;11.63;;;;;;;28.92;41.22;94456.72;5055294;28;20099;-73
2022/06/22 08:41:23;;;;;;;15.45;11.35;;;;;;;29.00;40.88;94473.38;5055624;28;20490;-72
2022/06/22 08:44:31;;;;;;;13.85;10.60;;;;;;;29.10;41.30;94468.16;5071655;28;20047;-72
2022/06/22 08:47:44;;;;;;;14.48;10.35;;;;;;;29.18;41.88;94478.44;5072806;28;20143;-72
2022/06/22 08:50:16;;;;;;;13.55;10.80;;;;;;;29.30;40.38;94468.38;5055596;28;20060;-72
2022/06/22 08:52:51;;;;;;;17.15;10.90;;;;;;;29.27;40.95;94468.88;5071340;28;20040;-72
2022/06/22 08:55:41;;;;;;;13.98;9.70;;;;;;;29.23;40.45;94477.69;5072396;28;20029;-72
2022/06/22 08:58:25;;;;;;;12.18;8.80;;;;;;;29.22;40.14;94460.81;5071178;28;20056;-73
2022/06/22 09:00:57;;;;;;;13.98;9.40;;;;;;;29.30;40.35;94460.34;5072564;28;20089;-72
2022/06/22 09:03:43;;;;;;;15.10;9.63;;;;;;;29.29;39.55;94453.41;5054750;28;20479;-72
2022/06/22 09:06:42;;;;;;;10.48;9.43;;;;;;;29.46;39.77;94450.63;5072594;28;20035;-72
2022/06/22 09:09:41;;;;;;;13.18;8.82;;;;;;;29.51;39.22;94445.31;5070952;28;20040;-72
2022/06/22 09:12:46;;;;;;;10.53;8.70;;;;;;;29.44;39.97;94441.22;5066053;28;20049;-72
2022/06/22 09:15:18;;;;;;;12.35;9.13;;;;;;;29.30;40.38;94438.16;5070952;28;20497;-72
2022/06/22 09:18:08;;;;;;;20.55;9.35;;;;;;;29.40;40.94;94428.38;5072011;28;20024;-72
2022/06/22 09:21:00;;;;;;;10.68;8.50;;;;;;;29.46;39.69;94441.78;5072025;28;20055;-72
2022/06/22 09:23:52;;;;;;;12.88;9.07;;;;;;;29.37;39.75;94438.78;5070737;28;20036;-72
2022/06/22 09:26:23;;;;;;;10.60;9.13;;;;;;;29.30;40.72;94438.97;5069945;28;20085;-72
2022/06/22 09:29:12;;;;;;;14.23;9.07;;;;;;;29.32;40.95;94438.72;5071833;28;20044;-72
2022/06/22 09:32:15;;;;;;;11.50;8.77;;;;;;;29.48;40.89;94431.66;5050035;28;20498;-73
2022/06/22 09:35:09;;;;;;;10.38;8.48;;;;;;;29.63;40.87;94423.78;5071739;28;20328;-72
2022/06/22 09:37:46;;;;;;;13.88;8.82;;;;;;;29.70;41.42;94419.03;5070468;28;20039;-72
2022/06/22 09:40:41;;;;;;;10.85;8.27;;;;;;;29.65;40.41;94429.69;5071758;28;20040;-73
2022/06/22 09:43:30;;;;;;;13.30;7.55;;;;;;;29.53;38.21;94429.00;5070520;28;20043;-72
2022/06/22 09:45:59;;;;;;;9.50;6.70;;;;;;;29.49;38.74;94414.53;5070437;28;20036;-72
2022/06/22 09:48:46;;;;;;;8.75;6.53;;;;;;;29.62;38.33;94414.13;5071436;28;20024;-72
2022/06/22 09:51:33;;;;;;;8.80;7.60;;;;;;;29.73;37.45;94407.00;5071296;28;20056;-72
2022/06/22 09:57:26;;;;;;;12.90;7.70;;;;;;;29.31;38.28;94415.69;5072021;28;20064;-71
2022/06/22 09:59:56;;;;;;;13.02;7.65;;;;;;;29.31;39.58;94421.88;5070190;28;20032;-71
2022/06/22 10:02:26;;;;;;;11.17;8.07;;;;;;;29.43;39.86;94419.03;5069916;28;20036;-71
2022/06/22 10:05:17;;;;;;;10.93;8.02;;;;;;;29.52;40.25;94424.72;5053889;28;20522;-70
2022/06/22 10:07:57;;;;;;;10.77;7.70;;;;;;;29.44;39.24;94423.31;5071170;28;20043;-70
2022/06/22 10:10:41;;;;;;;11.27;8.00;;;;;;;29.36;40.61;94419.25;5071104;28;20059;-70
2022/06/22 10:13:15;;;;;;;10.80;8.25;;;;;;;29.45;40.45;94440.16;5071112;28;20197;-71
2022/06/22 10:15:59;;;;;;;11.20;8.20;;;;;;;29.49;41.16;94447.44;5071163;28;20456;-70
2022/06/22 10:18:27;;;;;;;13.15;6.90;;;;;;;29.56;39.71;94444.53;5070987;28;20119;-71
2022/06/22 10:20:58;;;;;;;9.70;7.43;;;;;;;29.53;39.11;94429.00;5069650;28;20040;-70
2022/06/22 10:23:45;;;;;;;10.00;7.25;;;;;;;29.60;39.79;94435.75;5069765;28;20032;-70
2022/06/22 10:26:39;;;;;;;14.45;7.65;;;;;;;29.62;39.66;94438.19;5071163;28;20107;-70
2022/06/22 10:29:42;;;;;;;10.50;7.45;;;;;;;29.53;40.18;94442.38;5070629;28;20041;-70
2022/06/22 10:32:19;;;;;;;12.30;8.07;;;;;;;29.56;40.69;94436.50;5071294;28;20120;-70
2022/06/22 10:35:03;;;;;;;9.27;7.35;;;;;;;29.46;39.76;94433.75;5070896;28;20032;-70
2022/06/22 10:37:43;;;;;;;14.38;7.72;;;;;;;29.47;40.05;94436.16;5069561;28;20074;-70
2022/06/22 10:46:09;;;;;;;9.23;7.47;;;;;;;29.55;40.51;94433.03;5070062;28;20074;-70
2022/06/22 10:49:04;;;;;;;10.30;7.53;;;;;;;29.52;40.77;94438.09;5069548;28;20603;-70
2022/06/22 10:51:49;;;;;;;10.73;7.82;;;;;;;29.47;41.21;94435.38;5061043;28;20056;-71
2022/06/22 10:54:36;;;;;;;14.85;8.13;;;;;;;29.49;41.88;94433.25;5053937;28;20029;-70
2022/06/22 10:57:19;;;;;;;13.35;7.90;;;;;;;29.65;41.05;94432.38;5071056;28;20064;-70
2022/06/22 11:00:28;;;;;;;9.32;7.32;;;;;;;29.74;41.18;94422.78;5069522;28;20055;-70
2022/06/22 11:03:34;;;;;;;8.68;7.40;;;;;;;29.77;40.48;94430.31;5051579;28;20037;-70
2022/06/22 11:06:19;;;;;;;11.23;8.02;;;;;;;29.80;40.66;94418.28;5008408;28;20139;-70
2022/06/22 11:08:51;;;;;;;11.68;7.82;;;;;;;29.75;41.25;94419.03;5008521;28;20073;-70
2022/06/22 11:11:39;;;;;;;9.82;7.45;;;;;;;29.95;41.03;94425.59;5049115;28;20047;-70
2022/06/22 11:14:33;;;;;;;12.95;7.57;;;;;;;29.99;41.01;94416.81;5053933;28;20052;-70
2022/06/22 11:17:14;;;;;;;14.27;7.65;;;;;;;30.15;40.38;94415.06;5070923;28;20139;-70
2022/06/22 11:20:15;;;;;;;11.82;7.18;;;;;;;30.17;40.71;94418.28;5069194;28;20024;-70
2022/06/22 11:22:47;;;;;;;9.25;7.57;;;;;;;30.28;40.41;94419.97;5069743;28;20040;-70
2022/06/22 11:31:14;;;;;;;11.68;7.25;;;;;;;30.30;40.80;94434.97;5070745;28;20047;-70
2022/06/22 11:33:49;;;;;;;12.20;7.32;;;;;;;30.18;41.01;94425.25;5069058;28;20064;-70
2022/06/22 11:36:24;;;;;;;11.13;7.32;;;;;;;30.03;41.34;94435.84;5070428;28;20029;-70
2022/06/22 11:39:08;;;;;;;10.43;7.47;;;;;;;29.82;41.72;94433.03;5070487;28;20036;-70
2022/06/22 11:41:59;;;;;;;12.75;7.30;;;;;;;29.66;42.11;94423.25;5069048;28;20490;-70
2022/06/22 11:45:50;;;;;;;12.10;7.97;;;;;;;29.46;43.53;94429.22;5068999;28;20048;-71
2022/06/22 11:48:12;;;;;;;10.65;7.15;;;;;;;29.23;41.92;94435.69;5070489;28;20597;-71
2022/06/22 11:51:15;;;;;;;9.15;7.22;;;;;;;29.16;43.50;94430.53;5073573;28;20052;-70
2022/06/22 11:53:46;;;;;;;19.42;8.52;;;;;;;28.88;43.45;94434.22;5073741;28;20028;-70
2022/06/22 11:56:30;;;;;;;8.65;7.22;;;;;;;28.80;42.77;94425.84;5073865;28;20459;-70
2022/06/22 11:59:14;;;;;;;8.73;7.60;;;;;;;28.66;43.23;94430.75;5073681;28;20024;-70
2022/06/22 12:01:43;;;;;;;12.70;7.93;;;;;;;28.86;43.76;94425.66;5073862;28;20040;-70
2022/06/22 12:04:36;;;;;;;11.07;7.80;;;;;;;28.90;43.29;94426.75;5073489;28;20025;-70
2022/06/22 12:07:33;;;;;;;10.93;7.88;;;;;;;28.98;42.75;94430.06;5073866;28;20048;-70
2022/06/22 12:10:02;;;;;;;12.50;8.25;;;;;;;28.99;43.35;94429.00;5069771;28;20399;-70
2022/06/22 12:12:39;;;;;;;9.95;8.23;;;;;;;29.12;42.35;94433.97;5072068;28;20036;-70
2022/06/22 12:15:27;;;;;;;12.65;8.02;;;;;;;29.23;40.74;94429.53;5073349;28;20048;-71
2022/06/22 12:17:54;;;;;;;15.60;9.15;;;;;;;29.27;40.40;94430.63;5071973;28;20071;-70
2022/06/22 12:20:39;;;;;;;14.32;8.25;;;;;;;29.28;40.39;94427.72;5071891;28;20032;-70
2022/06/22 12:23:22;;;;;;;13.00;7.93;;;;;;;29.24;40.18;94433.81;5071961;28;20028;-70
2022/06/22 12:26:08;;;;;;;9.02;7.82;;;;;;;29.21;41.55;94419.09;5073232;28;20567;-71
2022/06/22 12:28:42;;;;;;;9.48;8.30;;;;;;;29.19;42.08;94437.25;5071947;28;20056;-70
2022/06/22 12:31:16;;;;;;;14.35;8.50;;;;;;;29.24;41.92;94439.16;5073231;28;20044;-70